Time;durP1;ratioP1;P1;durP2;ratioP2;P2;SDS_P1;SDS_P2;PMS_P1;PMS_P2;Temp;Humidity;BMP_temperature;BMP_pressure;BME280_temperature;BME280_humidity;BME280_pressure;Samples;Min_cycle;Max_cycle;Signal;HPM_P1;HPM_P2
2022/11/10 00:00:47;;;;;;;12.60;3.35;;;;;;;12.71;73.49;101561.03;5000446;28;20055;-62
2022/11/10 00:03:34;;;;;;;17.15;4.35;;;;;;;12.73;73.52;101560.75;4982044;28;20441;-62
2022/11/10 00:06:20;;;;;;;12.25;3.60;;;;;;;12.63;73.62;101559.00;5004851;28;20069;-61
2022/11/10 00:09:06;;;;;;;14.57;3.88;;;;;;;12.74;73.83;101567.91;5015567;28;20046;-61
2022/11/10 00:11:52;;;;;;;14.75;3.83;;;;;;;12.66;73.86;101569.44;4999691;28;20042;-62
2022/11/10 00:17:43;;;;;;;15.48;3.60;;;;;;;12.65;73.84;101570.59;5009632;28;20445;-61
2022/11/10 00:20:29;;;;;;;12.50;3.70;;;;;;;12.71;74.02;101574.88;5007724;28;20062;-62
2022/11/10 00:23:14;;;;;;;15.43;3.55;;;;;;;12.78;73.87;101583.56;4987914;28;20042;-61
2022/11/10 00:26:00;;;;;;;10.95;3.50;;;;;;;12.60;74.11;101584.50;5013695;28;20046;-61
2022/11/10 00:28:47;;;;;;;11.70;3.75;;;;;;;12.63;74.21;101592.19;5015327;28;20413;-61
2022/11/10 00:31:38;;;;;;;12.30;3.63;;;;;;;12.68;73.90;101596.78;5014704;28;20057;-61
2022/11/10 00:34:25;;;;;;;15.90;3.60;;;;;;;12.62;74.37;101584.19;5012966;28;20057;-61
2022/11/10 00:37:11;;;;;;;12.88;4.55;;;;;;;12.64;74.11;101590.25;4998953;28;20069;-62
2022/11/10 00:39:56;;;;;;;13.07;4.10;;;;;;;12.60;74.69;101598.31;5022759;28;20049;-62
2022/11/10 00:42:42;;;;;;;17.40;4.50;;;;;;;12.62;74.62;101598.00;5013848;28;20061;-62
2022/11/10 00:45:28;;;;;;;13.05;4.03;;;;;;;12.65;74.51;101598.22;5007298;28;20058;-62
2022/11/10 00:48:14;;;;;;;13.32;3.60;;;;;;;12.69;74.62;101603.97;4997127;28;20072;-69
2022/11/10 00:51:00;;;;;;;16.83;3.97;;;;;;;12.62;74.90;101609.06;5013072;28;20046;-69
2022/11/10 00:53:46;;;;;;;12.93;3.42;;;;;;;12.65;74.81;101612.03;5002992;28;20057;-70
2022/11/10 00:56:31;;;;;;;18.00;4.90;;;;;;;12.39;75.42;101614.47;5007035;28;20054;-70
2022/11/10 00:59:18;;;;;;;15.50;4.22;;;;;;;12.42;75.72;101621.31;5001873;28;20054;-69
2022/11/10 01:02:04;;;;;;;11.07;3.70;;;;;;;12.61;75.56;101616.53;5022127;28;20050;-70
2022/11/10 01:04:49;;;;;;;13.77;3.38;;;;;;;12.51;75.24;101615.91;5013738;28;20057;-70
2022/11/10 01:07:35;;;;;;;11.13;3.50;;;;;;;12.60;75.35;101620.44;4988864;28;20417;-70
2022/11/10 01:10:21;;;;;;;15.15;3.95;;;;;;;12.54;75.44;101624.41;5001102;28;20474;-70
2022/11/10 01:13:06;;;;;;;14.27;3.63;;;;;;;12.51;75.88;101619.50;5012979;28;20054;-71
2022/11/10 01:15:52;;;;;;;10.35;3.60;;;;;;;12.52;75.58;101632.19;4998990;28;20053;-70
2022/11/10 01:18:38;;;;;;;14.60;3.65;;;;;;;12.54;75.65;101627.16;5003560;28;20053;-70
2022/11/10 01:21:25;;;;;;;10.43;3.10;;;;;;;12.61;75.66;101630.34;5013283;28;20166;-71
2022/11/10 01:24:11;;;;;;;16.17;3.80;;;;;;;12.61;75.11;101633.13;4999744;28;20038;-70
2022/11/10 01:26:57;;;;;;;13.40;3.20;;;;;;;12.64;75.29;101628.94;5013471;28;20401;-70
2022/11/10 01:29:43;;;;;;;18.33;3.30;;;;;;;12.50;75.44;101642.72;5013810;28;20050;-69
2022/11/10 01:32:29;;;;;;;15.27;3.20;;;;;;;12.43;76.26;101643.09;5014318;28;20069;-69
2022/11/10 01:35:15;;;;;;;18.40;3.00;;;;;;;12.36;76.41;101650.97;5011896;28;20053;-70
2022/11/10 01:38:00;;;;;;;13.00;4.20;;;;;;;12.35;76.51;101654.88;5017734;28;20042;-70
2022/11/10 01:40:46;;;;;;;9.02;2.85;;;;;;;12.28;77.16;101650.84;5014254;28;20053;-69
2022/11/10 01:43:32;;;;;;;11.75;3.55;;;;;;;12.31;76.97;101656.59;5007789;28;20054;-70
2022/11/10 01:46:18;;;;;;;14.50;3.40;;;;;;;12.24;77.19;101661.66;4992622;28;20508;-70
2022/11/10 01:49:04;;;;;;;19.25;3.97;;;;;;;12.27;77.46;101660.25;5008837;28;20423;-69
2022/11/10 01:51:57;;;;;;;17.60;4.28;;;;;;;12.07;77.96;101658.66;5013396;28;20491;-70
2022/11/10 01:54:46;;;;;;;11.85;3.65;;;;;;;12.11;78.03;101662.47;5016103;28;20045;-61
2022/11/10 01:57:32;;;;;;;13.40;3.47;;;;;;;12.19;77.93;101671.97;4996392;28;20493;-61
2022/11/10 02:00:18;;;;;;;14.32;3.50;;;;;;;12.33;77.67;101670.91;5014414;28;20046;-60
2022/11/10 02:03:10;;;;;;;15.75;3.20;;;;;;;12.40;77.15;101673.28;5016614;28;20054;-61
2022/11/10 02:05:55;;;;;;;13.70;3.38;;;;;;;12.43;77.12;101667.16;5015682;28;20045;-60
2022/11/10 02:08:42;;;;;;;19.05;3.47;;;;;;;12.28;77.51;101673.78;5017132;28;20054;-62
2022/11/10 02:11:28;;;;;;;12.63;3.13;;;;;;;12.11;78.08;101681.78;4993331;28;20536;-63
2022/11/10 02:14:15;;;;;;;14.93;3.30;;;;;;;12.02;78.62;101672.53;4989478;28;20046;-61
2022/11/10 02:17:01;;;;;;;15.45;3.20;;;;;;;12.04;79.04;101670.31;5001895;28;20045;-61
2022/11/10 02:19:47;;;;;;;11.98;3.05;;;;;;;12.07;78.90;101669.69;4996930;28;20050;-61
2022/11/10 02:22:33;;;;;;;13.15;3.55;;;;;;;12.13;78.41;101679.53;5010237;28;20050;-61
2022/11/10 02:25:21;;;;;;;13.23;3.22;;;;;;;12.07;78.96;101677.16;5013139;28;20396;-61
2022/11/10 02:28:06;;;;;;;12.65;3.80;;;;;;;12.04;78.99;101675.00;4991020;28;20061;-61
2022/11/10 02:30:53;;;;;;;13.82;3.38;;;;;;;11.97;79.54;101674.56;4995615;28;20050;-61
2022/11/10 02:33:39;;;;;;;13.15;3.20;;;;;;;11.92;79.83;101686.50;5010915;28;20046;-60
2022/11/10 02:36:24;;;;;;;12.90;3.28;;;;;;;11.86;80.12;101675.81;5013667;28;20107;-61
2022/11/10 02:39:10;;;;;;;13.48;3.65;;;;;;;11.73;80.89;101682.91;5019733;28;20604;-61
2022/11/10 02:41:56;;;;;;;14.50;4.20;;;;;;;11.86;80.76;101679.41;5017006;28;20069;-61
2022/11/10 02:44:41;;;;;;;15.68;3.33;;;;;;;11.83;80.38;101679.19;5002357;28;20107;-61
2022/11/10 02:47:27;;;;;;;20.30;3.85;;;;;;;11.81;80.49;101684.16;5015267;28;20046;-61
2022/11/10 02:50:14;;;;;;;14.63;4.07;;;;;;;11.83;80.63;101682.75;5012840;28;20050;-61
2022/11/10 02:53:00;;;;;;;17.33;3.53;;;;;;;11.93;80.18;101685.38;5014759;28;20057;-61
2022/11/10 02:55:46;;;;;;;14.05;3.60;;;;;;;11.88;80.38;101688.22;5008865;28;20058;-61
2022/11/10 02:58:32;;;;;;;19.65;4.07;;;;;;;11.78;81.07;101685.59;5002004;28;20057;-61
2022/11/10 03:01:18;;;;;;;13.68;4.68;;;;;;;11.92;80.29;101688.44;5014699;28;20501;-62
2022/11/10 03:04:04;;;;;;;13.57;3.67;;;;;;;11.81;80.48;101685.00;5015169;28;20133;-62
2022/11/10 03:06:50;;;;;;;13.32;3.55;;;;;;;11.78;81.10;101693.88;5014575;28;20061;-62
2022/11/10 03:09:36;;;;;;;15.50;3.78;;;;;;;11.70;80.95;101693.72;5010865;28;20050;-61
2022/11/10 03:12:22;;;;;;;11.73;3.72;;;;;;;11.61;81.42;101689.97;5008315;28;20053;-61
2022/11/10 03:15:08;;;;;;;13.05;4.53;;;;;;;11.58;81.51;101683.09;5016572;28;20049;-61
2022/11/10 03:17:54;;;;;;;14.02;4.32;;;;;;;11.49;82.21;101695.09;5008619;28;20068;-61
2022/11/10 03:20:40;;;;;;;14.63;4.00;;;;;;;11.39;82.23;101693.25;5000218;28;20049;-61
2022/11/10 03:23:26;;;;;;;15.55;5.50;;;;;;;11.53;81.95;101704.41;5001578;28;20182;-61
2022/11/10 03:26:13;;;;;;;13.55;4.65;;;;;;;11.61;81.65;101701.00;5010763;28;20042;-62
2022/11/10 03:28:59;;;;;;;18.83;4.95;;;;;;;11.34;81.83;101698.84;4996314;28;20065;-62
2022/11/10 03:31:45;;;;;;;11.98;4.70;;;;;;;11.41;81.94;101702.06;5016038;28;20049;-62
2022/11/10 03:34:31;;;;;;;15.23;4.82;;;;;;;11.43;81.58;101701.78;5015773;28;20042;-70
2022/11/10 03:37:17;;;;;;;16.52;5.35;;;;;;;11.33;81.46;101698.03;5012337;28;20050;-70
2022/11/10 03:40:03;;;;;;;14.23;5.45;;;;;;;11.36;81.96;101702.13;4999078;28;20527;-70
2022/11/10 03:42:48;;;;;;;18.25;4.70;;;;;;;11.23;81.78;101708.34;5016260;28;20053;-69
2022/11/10 03:45:34;;;;;;;16.23;5.40;;;;;;;10.97;83.03;101712.50;5014634;28;20058;-69
2022/11/10 03:48:20;;;;;;;19.35;5.25;;;;;;;10.93;84.10;101715.03;5015511;28;20062;-70
2022/11/10 03:51:06;;;;;;;17.73;5.22;;;;;;;11.14;83.36;101715.66;5013516;28;20050;-70
2022/11/10 03:53:52;;;;;;;15.48;5.43;;;;;;;11.27;82.70;101709.41;4997998;28;20061;-70
2022/11/10 03:56:38;;;;;;;16.25;5.63;;;;;;;11.21;82.62;101714.16;5015167;28;20554;-70
2022/11/10 03:59:24;;;;;;;12.68;4.68;;;;;;;11.26;82.41;101724.34;4989410;28;20062;-70
2022/11/10 04:02:10;;;;;;;14.18;4.97;;;;;;;11.31;82.25;101730.59;5006320;28;20386;-69
2022/11/10 04:11:05;;;;;;;14.70;4.50;;;;;;;11.36;82.33;101729.72;5009186;28;20050;-70
2022/11/10 04:16:56;;;;;;;15.77;4.38;;;;;;;11.19;82.25;101730.19;5012001;28;20057;-70
2022/11/10 04:19:41;;;;;;;15.20;4.32;;;;;;;11.28;82.82;101727.59;5015483;28;20061;-69
2022/11/10 04:26:27;;;;;;;15.75;4.22;;;;;;;11.24;83.09;101724.59;5008670;28;20045;-69
2022/11/10 04:28:38;;;;;;;14.57;4.55;;;;;;;11.38;81.97;101728.28;4997040;28;20057;-69
2022/11/10 04:31:26;;;;;;;14.70;4.43;;;;;;;11.22;82.19;101740.66;5006880;28;20042;-70
2022/11/10 04:34:14;;;;;;;17.10;4.80;;;;;;;11.20;82.40;101734.59;5015393;28;20440;-70
2022/11/10 04:37:00;;;;;;;19.90;4.95;;;;;;;11.29;82.02;101746.63;5014852;28;20050;-69
2022/11/10 04:39:46;;;;;;;14.75;4.20;;;;;;;11.32;81.59;101746.03;5015400;28;20080;-70
2022/11/10 04:42:32;;;;;;;14.57;4.30;;;;;;;11.34;81.37;101748.50;5012893;28;20046;-70
2022/11/10 04:45:17;;;;;;;12.98;5.00;;;;;;;11.26;81.54;101752.72;5010794;28;20554;-70
2022/11/10 04:48:03;;;;;;;14.27;4.85;;;;;;;11.12;82.16;101757.28;4995728;28;20038;-70
2022/11/10 04:50:50;;;;;;;16.23;4.93;;;;;;;11.05;82.64;101765.06;4994903;28;20046;-71
2022/11/10 04:53:36;;;;;;;13.80;4.60;;;;;;;11.02;83.11;101762.91;4994895;28;20054;-70
2022/11/10 04:56:23;;;;;;;12.60;4.40;;;;;;;11.08;82.44;101770.03;5003948;28;20050;-70
2022/11/10 04:59:09;;;;;;;15.50;5.13;;;;;;;10.97;82.35;101773.97;5012796;28;20058;-70
2022/11/10 05:01:55;;;;;;;15.82;5.53;;;;;;;10.90;82.43;101773.50;5001415;28;20065;-71
2022/11/10 05:04:41;;;;;;;18.25;5.43;;;;;;;10.91;82.36;101775.13;5034510;28;20047;-70
2022/11/10 05:07:26;;;;;;;14.40;4.72;;;;;;;11.09;81.87;101782.69;4997687;28;20076;-71
2022/11/10 05:10:13;;;;;;;15.48;5.32;;;;;;;10.93;81.40;101792.19;5014139;28;20045;-69
2022/11/10 05:13:00;;;;;;;16.25;4.88;;;;;;;10.87;81.86;101795.31;5014855;28;20046;-69
2022/11/10 05:15:45;;;;;;;18.70;5.95;;;;;;;10.74;82.19;101790.47;5006765;28;20042;-69
2022/11/10 05:18:31;;;;;;;15.68;5.47;;;;;;;10.62;83.12;101801.84;5015512;28;20046;-69
2022/11/10 05:21:17;;;;;;;15.20;5.35;;;;;;;10.61;83.52;101807.66;4999878;28;20068;-70
2022/11/10 05:24:03;;;;;;;16.35;5.38;;;;;;;10.55;83.25;101801.34;5012576;28;20046;-70
2022/11/10 05:26:48;;;;;;;15.05;5.18;;;;;;;10.71;83.25;101808.38;5017752;28;20049;-70
2022/11/10 05:29:34;;;;;;;15.82;5.20;;;;;;;10.60;83.57;101815.06;5011719;28;20054;-69
2022/11/10 05:32:20;;;;;;;15.82;4.97;;;;;;;10.56;83.88;101818.69;5010193;28;20050;-71
2022/11/10 05:35:06;;;;;;;15.95;5.00;;;;;;;10.63;83.56;101819.19;5018502;28;20046;-69
2022/11/10 05:37:52;;;;;;;16.77;5.35;;;;;;;10.61;83.74;101825.00;5017647;28;20050;-69
2022/11/10 05:40:37;;;;;;;14.25;5.22;;;;;;;10.63;82.99;101825.53;5003395;28;20069;-70
2022/11/10 05:43:23;;;;;;;15.23;4.88;;;;;;;10.62;82.99;101825.81;5018358;28;20046;-69
2022/11/10 05:46:10;;;;;;;12.10;5.13;;;;;;;10.62;83.38;101829.41;5017323;28;20045;-69
2022/11/10 05:48:56;;;;;;;13.70;5.10;;;;;;;10.62;83.59;101825.81;5017771;28;20042;-71
2022/11/10 05:51:41;;;;;;;11.38;4.63;;;;;;;10.63;83.69;101833.81;5009246;28;20054;-69
2022/11/10 05:54:28;;;;;;;14.13;5.03;;;;;;;10.70;83.64;101839.00;5018006;28;20061;-70
2022/11/10 05:57:13;;;;;;;19.80;5.53;;;;;;;10.68;83.52;101836.53;5001618;28;20046;-71
2022/11/10 05:59:59;;;;;;;15.65;4.70;;;;;;;10.83;83.34;101841.06;5016677;28;20064;-70
2022/11/10 06:02:45;;;;;;;20.48;4.75;;;;;;;10.66;83.51;101841.50;5016476;28;20054;-70
2022/11/10 06:05:33;;;;;;;12.98;4.22;;;;;;;10.58;84.26;101842.13;5017446;28;20543;-70
2022/11/10 06:08:19;;;;;;;15.05;5.32;;;;;;;10.42;84.72;101835.06;5016862;28;20064;-70
2022/11/10 06:11:05;;;;;;;14.07;4.95;;;;;;;10.52;85.32;101837.75;5002978;28;20049;-69
2022/11/10 06:13:51;;;;;;;17.00;5.30;;;;;;;10.61;84.54;101841.53;5017751;28;20061;-61
2022/11/10 06:16:37;;;;;;;14.93;5.40;;;;;;;10.46;84.39;101844.38;4995906;28;20053;-62
2022/11/10 06:19:22;;;;;;;18.80;6.47;;;;;;;10.30;85.10;101853.03;5017480;28;20057;-61
2022/11/10 06:22:08;;;;;;;20.40;6.18;;;;;;;10.39;84.83;101843.88;5017222;28;20049;-61
2022/11/10 06:24:54;;;;;;;19.45;6.18;;;;;;;10.16;85.13;101847.31;4999311;28;20065;-60
2022/11/10 06:27:43;;;;;;;17.48;5.55;;;;;;;9.97;86.23;101851.78;5017277;28;20060;-61
2022/11/10 06:30:31;;;;;;;17.15;6.93;;;;;;;9.79;87.33;101864.25;5016248;28;20484;-61
2022/11/10 06:33:16;;;;;;;16.05;6.00;;;;;;;9.91;87.57;101866.66;5016645;28;20053;-63
2022/11/10 06:36:02;;;;;;;12.65;5.47;;;;;;;10.07;86.65;101863.56;5011000;28;20045;-62
2022/11/10 06:38:48;;;;;;;16.17;5.45;;;;;;;10.17;86.03;101877.31;5016272;28;20045;-61
2022/11/10 06:41:34;;;;;;;14.60;5.70;;;;;;;10.04;86.36;101877.09;5016806;28;20497;-61
2022/11/10 06:44:20;;;;;;;17.33;6.20;;;;;;;10.15;86.25;101879.53;5007603;28;20054;-61
2022/11/10 06:47:06;;;;;;;15.02;5.72;;;;;;;10.03;86.08;101875.41;5015637;28;20053;-62
2022/11/10 06:49:52;;;;;;;17.27;5.25;;;;;;;9.99;86.67;101885.34;5002329;28;20054;-62
2022/11/10 06:52:38;;;;;;;18.42;5.57;;;;;;;9.93;86.55;101891.97;5016849;28;20497;-63
2022/11/10 06:55:24;;;;;;;21.02;5.55;;;;;;;10.01;86.82;101891.38;4992602;28;20375;-61
2022/11/10 06:58:11;;;;;;;15.30;5.10;;;;;;;10.20;86.13;101906.19;5017204;28;20053;-62
2022/11/10 07:01:00;;;;;;;15.90;5.43;;;;;;;10.26;85.66;101905.09;5004929;28;20054;-63
2022/11/10 07:03:46;;;;;;;17.42;6.00;;;;;;;10.29;84.58;101906.47;5000419;28;20054;-62
2022/11/10 07:06:53;;;;;;;17.45;5.95;;;;;;;10.22;85.27;101914.22;5003717;28;20077;-61
2022/11/10 07:09:38;;;;;;;11.73;5.18;;;;;;;10.30;84.86;101917.19;5001481;28;20055;-61
2022/11/10 07:12:24;;;;;;;19.73;5.13;;;;;;;10.19;85.36;101929.34;4994167;28;20054;-60
2022/11/10 07:15:10;;;;;;;35.25;19.15;;;;;;;10.38;84.81;101927.63;5017170;28;20397;-61
2022/11/10 07:17:56;;;;;;;20.73;8.20;;;;;;;10.38;84.67;101938.63;4995687;28;20057;-62
2022/11/10 07:20:42;;;;;;;13.25;5.57;;;;;;;10.28;84.89;101935.94;5010480;28;20053;-61
2022/11/10 07:23:28;;;;;;;15.82;5.53;;;;;;;10.49;84.59;101943.00;4982478;28;20057;-62
2022/11/10 07:26:14;;;;;;;16.17;5.00;;;;;;;10.43;84.29;101941.34;5005128;28;20046;-61
2022/11/10 07:29:00;;;;;;;15.88;5.60;;;;;;;10.32;84.28;101949.97;5009988;28;20053;-62
2022/11/10 07:31:46;;;;;;;18.70;6.15;;;;;;;10.21;85.17;101951.94;5009604;28;20050;-61
2022/11/10 07:34:31;;;;;;;20.38;6.00;;;;;;;10.23;85.48;101952.47;5015405;28;20050;-70
2022/11/10 07:37:17;;;;;;;20.38;9.88;;;;;;;10.29;85.46;101958.78;5007773;28;20091;-60
2022/11/10 07:40:03;;;;;;;26.88;8.63;;;;;;;10.14;85.58;101963.25;4996493;28;20054;-63
2022/11/10 07:42:49;;;;;;;17.30;6.88;;;;;;;10.16;86.08;101976.72;4999134;28;20064;-70
2022/11/10 07:45:35;;;;;;;18.65;6.00;;;;;;;10.33;85.60;101968.94;5013607;28;20055;-65
2022/11/10 07:48:21;;;;;;;20.20;6.30;;;;;;;10.44;84.86;101975.25;5013706;28;20045;-70
2022/11/10 07:51:07;;;;;;;15.45;5.95;;;;;;;10.57;84.44;101982.88;5014309;28;20042;-69
2022/11/10 07:53:53;;;;;;;23.90;6.10;;;;;;;10.53;84.42;101985.38;5011136;28;20062;-70
2022/11/10 07:56:41;;;;;;;15.43;5.90;;;;;;;10.78;84.00;101993.53;5011797;28;20041;-71
2022/11/10 07:59:26;;;;;;;16.48;6.00;;;;;;;10.68;83.14;102003.78;5012170;28;20053;-69
2022/11/10 08:02:12;;;;;;;15.70;6.25;;;;;;;10.68;83.53;102004.63;4998821;28;20051;-65
2022/11/10 08:04:58;;;;;;;27.83;7.38;;;;;;;10.56;83.21;102023.41;4981829;28;20050;-71
2022/11/10 08:07:44;;;;;;;15.93;6.50;;;;;;;10.61;83.76;102037.16;5001876;28;20050;-70
2022/11/10 08:10:31;;;;;;;19.05;6.65;;;;;;;10.63;83.45;102032.19;4995492;28;20042;-61
2022/11/10 08:13:17;;;;;;;21.55;6.70;;;;;;;10.67;83.48;102036.00;5016284;28;20057;-67
2022/11/10 08:16:03;;;;;;;21.98;7.00;;;;;;;10.82;82.61;102044.22;4978827;28;20057;-69
2022/11/10 08:18:49;;;;;;;18.20;7.80;;;;;;;10.83;82.85;102042.28;5001331;28;20069;-69
2022/11/10 08:21:34;;;;;;;17.58;6.97;;;;;;;10.85;82.78;102046.41;4999536;28;20049;-69
2022/11/10 08:24:21;;;;;;;20.35;7.78;;;;;;;10.98;82.21;102054.06;5009426;28;20056;-69
2022/11/10 08:27:07;;;;;;;20.65;7.88;;;;;;;11.05;82.03;102056.53;4994410;28;20505;-69
2022/11/10 08:29:53;;;;;;;23.23;7.47;;;;;;;11.07;82.60;102051.56;4993929;28;20065;-69
2022/11/10 08:32:39;;;;;;;21.33;7.30;;;;;;;11.18;82.25;102058.63;4999583;28;20050;-68
2022/11/10 08:35:27;;;;;;;18.85;7.70;;;;;;;11.45;81.50;102064.56;4995662;28;20050;-69
2022/11/10 08:38:23;;;;;;;21.38;7.88;;;;;;;11.63;80.87;102055.56;5009671;28;20054;-69
2022/11/10 08:41:09;;;;;;;15.88;7.47;;;;;;;11.61;79.75;102066.06;5008473;28;20367;-68
2022/11/10 08:43:55;;;;;;;23.73;8.73;;;;;;;11.62;79.57;102059.44;5008962;28;20489;-68
2022/11/10 08:46:43;;;;;;;28.63;12.15;;;;;;;11.68;79.47;102060.28;4990691;28;20065;-68
2022/11/10 08:49:29;;;;;;;20.88;8.27;;;;;;;11.84;78.96;102057.09;5002244;28;20053;-68
2022/11/10 08:52:14;;;;;;;17.67;8.73;;;;;;;11.80;77.62;102061.53;5012203;28;20057;-68
2022/11/10 08:55:01;;;;;;;23.10;7.95;;;;;;;11.74;78.03;102070.16;4985400;28;20538;-69
2022/11/10 08:57:47;;;;;;;25.58;8.10;;;;;;;11.68;78.28;102079.59;4998572;28;20058;-68
2022/11/10 09:00:34;;;;;;;19.38;8.13;;;;;;;11.79;78.14;102083.91;4985389;28;20062;-69
2022/11/10 09:03:23;;;;;;;30.35;9.45;;;;;;;11.83;78.19;102083.06;4991972;28;20049;-69
2022/11/10 09:06:09;;;;;;;19.13;9.38;;;;;;;11.78;77.91;102085.03;4995578;28;20047;-68
2022/11/10 09:08:56;;;;;;;28.38;11.02;;;;;;;11.72;77.79;102097.19;4976595;28;20137;-69
2022/11/10 09:11:42;;;;;;;22.80;10.35;;;;;;;11.53;78.40;102093.44;4983371;28;20065;-68
2022/11/10 09:14:28;;;;;;;19.67;10.32;;;;;;;11.63;78.26;102099.72;4992529;28;20061;-67
2022/11/10 09:17:13;;;;;;;18.60;9.95;;;;;;;11.69;78.36;102103.31;4995223;28;20058;-68
2022/11/10 09:19:59;;;;;;;23.08;11.23;;;;;;;11.60;78.22;102107.75;4991562;28;20049;-68
2022/11/10 09:22:45;;;;;;;23.58;11.18;;;;;;;11.42;79.38;102111.19;4991952;28;20070;-69
2022/11/10 09:25:31;;;;;;;31.08;12.32;;;;;;;11.26;80.64;102113.22;4981509;28;20283;-69
2022/11/10 09:28:18;;;;;;;25.58;12.27;;;;;;;11.08;81.19;102127.63;4984194;28;20073;-69
2022/11/10 09:31:03;;;;;;;28.30;12.25;;;;;;;11.09;81.42;102123.75;4979979;28;20053;-69
2022/11/10 09:33:49;;;;;;;30.23;12.88;;;;;;;11.21;81.31;102130.59;4979807;28;20074;-69
2022/11/10 09:36:36;;;;;;;25.95;12.00;;;;;;;11.38;80.98;102120.03;4989882;28;20057;-68
2022/11/10 09:39:22;;;;;;;23.70;12.20;;;;;;;11.09;82.43;102130.09;5003538;28;20057;-68
2022/11/10 09:42:35;;;;;;;25.77;13.55;;;;;;;11.03;82.79;102136.78;4995799;28;20057;-71
2022/11/10 09:45:28;;;;;;;25.63;12.77;;;;;;;10.83;84.46;102130.47;4984299;28;20070;-68
2022/11/10 09:48:24;;;;;;;28.73;12.93;;;;;;;10.97;84.81;102135.13;4992923;28;20513;-67
2022/11/10 09:51:30;;;;;;;26.60;12.10;;;;;;;11.17;84.21;102134.22;5002456;28;20049;-67
2022/11/10 09:54:45;;;;;;;27.80;12.68;;;;;;;11.29;83.87;102127.28;4976920;28;20057;-67
2022/11/10 09:57:31;;;;;;;25.27;12.10;;;;;;;11.42;83.72;102125.00;5006139;28;20534;-68
2022/11/10 10:00:18;;;;;;;24.92;14.07;;;;;;;11.49;83.99;102126.31;4986650;28;20065;-68
2022/11/10 10:03:05;;;;;;;25.10;12.52;;;;;;;11.55;84.08;102124.34;5004999;28;20053;-66
2022/11/10 10:06:09;;;;;;;26.27;13.35;;;;;;;11.69;83.46;102134.50;5010488;28;20061;-68
2022/11/10 10:09:08;;;;;;;23.27;13.02;;;;;;;11.97;82.95;102130.16;4993004;28;20064;-68
2022/11/10 10:12:03;;;;;;;21.42;11.95;;;;;;;12.10;81.94;102130.31;4976139;28;20516;-67
2022/11/10 10:14:58;;;;;;;25.75;12.30;;;;;;;12.00;81.79;102143.38;5005492;28;20053;-67
2022/11/10 10:17:58;;;;;;;23.20;12.45;;;;;;;12.14;81.33;102147.13;5009134;28;20050;-68
2022/11/10 10:20:47;;;;;;;21.58;11.93;;;;;;;12.06;81.58;102164.31;4991313;28;20066;-69
2022/11/10 10:23:35;;;;;;;23.95;12.88;;;;;;;12.13;80.95;102170.34;4988379;28;20053;-67
2022/11/10 10:26:51;;;;;;;22.83;12.15;;;;;;;11.99;81.73;102172.13;4981215;28;20049;-67
2022/11/10 10:29:45;;;;;;;25.80;13.00;;;;;;;11.97;82.10;102179.84;4995836;28;20523;-68
2022/11/10 10:32:31;;;;;;;31.15;13.38;;;;;;;11.74;82.49;102181.38;4985295;28;20057;-68
2022/11/10 10:35:17;;;;;;;34.83;20.75;;;;;;;11.77;83.25;102183.56;4994159;28;20057;-68
2022/11/10 10:38:04;;;;;;;27.15;14.10;;;;;;;11.71;83.76;102192.19;4993791;28;20057;-69
2022/11/10 10:40:51;;;;;;;27.85;13.30;;;;;;;11.72;83.68;102197.41;4983849;28;20050;-68
2022/11/10 10:43:39;;;;;;;28.48;13.93;;;;;;;11.86;83.08;102197.59;4984376;28;20058;-68
2022/11/10 10:46:27;;;;;;;21.17;13.27;;;;;;;11.66;83.96;102215.13;4976288;28;20050;-68
2022/11/10 10:49:27;;;;;;;24.10;13.50;;;;;;;11.76;84.51;102209.53;4992634;28;20057;-67
2022/11/10 10:52:16;;;;;;;22.90;12.80;;;;;;;12.02;83.35;102207.44;4995980;28;20057;-67
2022/11/10 10:55:06;;;;;;;23.42;13.50;;;;;;;12.27;82.09;102199.78;4991716;28;20074;-67
2022/11/10 10:57:55;;;;;;;;;;;;;;;12.20;82.10;102198.47;4996012;28;20057;-67
2022/11/10 11:00:46;;;;;;;29.15;13.73;;;;;;;12.26;82.29;102194.53;4987477;28;19936;-68
2022/11/10 11:03:42;;;;;;;;;;;;;;;12.44;81.57;102196.59;4984270;28;20053;-67
2022/11/10 11:06:32;;;;;;;31.80;13.80;;;;;;;12.28;81.80;102201.44;4989115;28;19929;-68
2022/11/10 11:09:26;;;;;;;26.65;13.23;;;;;;;12.51;81.80;102188.81;4996338;28;20049;-67
2022/11/10 11:12:27;;;;;;;27.52;13.45;;;;;;;12.52;81.21;102186.88;4998660;28;20061;-68
2022/11/10 11:15:28;;;;;;;28.08;14.07;;;;;;;12.46;81.22;102177.78;4983298;28;20057;-68
2022/11/10 11:18:16;;;;;;;23.98;14.52;;;;;;;12.17;82.31;102185.22;4997876;28;20074;-69
2022/11/10 11:21:21;;;;;;;24.10;14.02;;;;;;;12.45;82.16;102178.91;5002513;28;20053;-69
2022/11/10 11:24:22;;;;;;;25.60;13.88;;;;;;;12.56;81.50;102179.63;4995817;28;20175;-68
2022/11/10 11:27:26;;;;;;;24.38;14.77;;;;;;;12.38;81.73;102178.41;4998564;28;20055;-68
2022/11/10 11:30:18;;;;;;;25.08;13.95;;;;;;;12.43;82.00;102178.34;4990247;28;20046;-68
2022/11/10 11:33:21;;;;;;;27.27;14.15;;;;;;;12.66;81.66;102174.81;4981125;28;20054;-67
2022/11/10 11:36:29;;;;;;;23.83;13.00;;;;;;;12.63;81.21;102174.59;4989639;28;20778;-67
2022/11/10 11:39:39;;;;;;;58.08;36.75;;;;;;;12.54;81.49;102182.69;4993456;28;20081;-68
2022/11/10 11:42:36;;;;;;;22.35;14.48;;;;;;;12.60;81.50;102181.53;4994096;28;20435;-65
2022/11/10 11:45:33;;;;;;;25.17;13.63;;;;;;;12.48;82.62;102183.88;5003244;28;20131;-69
2022/11/10 11:48:37;;;;;;;25.42;14.30;;;;;;;12.68;81.84;102185.59;4980483;28;20053;-68
2022/11/10 11:51:44;;;;;;;52.08;24.40;;;;;;;12.76;81.50;102184.97;4996328;28;20060;-67
2022/11/10 11:54:55;;;;;;;34.25;18.27;;;;;;;12.67;81.92;102183.94;4988891;28;20420;-68
2022/11/10 11:58:15;;;;;;;18.90;12.25;;;;;;;12.80;81.84;102177.72;4984269;28;20053;-67
2022/11/10 12:01:04;;;;;;;22.15;12.02;;;;;;;13.06;80.85;102182.72;4976417;28;20057;-70
2022/11/10 12:04:17;;;;;;;22.65;11.25;;;;;;;13.10;80.84;102183.78;4986900;28;20078;-73
2022/11/10 12:07:22;;;;;;;20.55;12.00;;;;;;;13.05;80.83;102183.00;4990171;28;20061;-70
2022/11/10 12:10:22;;;;;;;23.33;11.60;;;;;;;12.96;81.23;102177.28;4982970;28;20070;-69
2022/11/10 12:13:11;;;;;;;;;;;;;;;13.01;81.27;102177.22;4973712;28;20050;-70
2022/11/10 12:16:11;;;;;;;22.95;12.07;;;;;;;13.24;80.97;102187.47;4965885;28;19930;-69
2022/11/10 12:19:05;;;;;;;24.75;9.25;;;;;;;13.37;80.63;102178.44;4972172;28;20043;-68
2022/11/10 12:21:56;;;;;;;22.70;10.63;;;;;;;13.49;80.39;102187.13;4986329;28;20058;-68
2022/11/10 12:24:45;;;;;;;24.55;9.80;;;;;;;13.57;80.25;102193.97;4977497;28;20058;-69
2022/11/10 12:27:39;;;;;;;27.48;10.93;;;;;;;13.79;79.36;102182.31;4987345;28;20061;-69
2022/11/10 12:30:25;;;;;;;29.25;12.98;;;;;;;13.82;79.34;102182.53;4969438;28;20058;-69
2022/11/10 12:33:34;;;;;;;26.05;13.48;;;;;;;13.91;78.75;102189.06;4979139;28;20054;-68
2022/11/10 12:36:21;;;;;;;34.17;17.75;;;;;;;13.85;78.98;102183.88;4974856;28;20086;-69
2022/11/10 12:39:16;;;;;;;21.58;11.55;;;;;;;13.65;79.02;102192.50;4973938;28;20057;-69
2022/11/10 12:42:04;;;;;;;25.95;11.98;;;;;;;13.87;79.00;102187.16;4981775;28;20054;-69
2022/11/10 12:45:17;;;;;;;18.35;10.73;;;;;;;13.88;78.94;102191.59;4972980;28;20393;-69
2022/11/10 12:48:04;;;;;;;19.17;10.52;;;;;;;13.88;79.10;102186.06;4991052;28;20061;-68
2022/11/10 12:50:57;;;;;;;21.50;10.82;;;;;;;14.07;78.16;102178.56;4987791;28;20053;-68
2022/11/10 12:53:44;;;;;;;26.30;12.57;;;;;;;14.15;77.63;102170.38;4983446;28;20073;-69
2022/11/10 12:56:38;;;;;;;25.13;11.98;;;;;;;14.08;78.00;102167.19;4983471;28;20061;-69
2022/11/10 12:59:30;;;;;;;20.33;11.02;;;;;;;14.04;77.73;102170.84;4974813;28;20053;-70
2022/11/10 13:02:23;;;;;;;23.02;10.32;;;;;;;14.19;78.03;102171.41;4989484;28;20521;-69
2022/11/10 13:05:12;;;;;;;18.38;7.20;;;;;;;14.32;77.39;102173.44;4976421;28;20050;-69
2022/11/10 13:08:15;;;;;;;15.43;6.47;;;;;;;14.42;77.04;102176.03;4988825;28;20391;-69
2022/11/10 13:11:10;;;;;;;22.23;8.15;;;;;;;14.31;77.41;102176.53;4977440;28;20058;-69